createdAt,value
2022-10-28T00:01:04.865Z,12.27
2022-10-28T00:03:33.666Z,19.63
2022-10-28T00:06:05.369Z,13.03
2022-10-28T00:08:33.436Z,10.20
2022-10-28T00:11:08.137Z,8.83
2022-10-28T00:13:36.798Z,12.37
2022-10-28T00:16:06.844Z,13.13
2022-10-28T00:18:34.799Z,10.73
2022-10-28T00:21:03.859Z,11.80
2022-10-28T00:23:32.152Z,13.00
2022-10-28T00:26:07.847Z,11.63
2022-10-28T00:28:35.954Z,11.00
2022-10-28T00:31:08.161Z,12.37
2022-10-28T00:33:36.405Z,10.30
2022-10-28T00:36:16.249Z,14.73
2022-10-28T00:38:45.391Z,9.40
2022-10-28T00:41:17.993Z,12.90
2022-10-28T00:43:47.750Z,16.57
2022-10-28T00:46:21.989Z,13.20
2022-10-28T00:48:55.520Z,18.77
2022-10-28T00:51:25.181Z,14.30
2022-10-28T00:53:55.321Z,14.37
2022-10-28T00:56:27.773Z,13.00
2022-10-28T00:59:00.402Z,22.33
2022-10-28T01:01:28.424Z,15.17
2022-10-28T01:03:57.713Z,15.60
2022-10-28T01:06:27.693Z,15.97
2022-10-28T01:08:59.054Z,14.43
2022-10-28T01:11:41.299Z,14.47
2022-10-28T01:14:21.511Z,16.80
2022-10-28T01:17:07.907Z,16.47
2022-10-28T01:20:08.988Z,20.07
2022-10-28T01:22:43.033Z,12.43
2022-10-28T01:25:36.069Z,13.83
2022-10-28T01:28:18.580Z,11.63
2022-10-28T01:31:09.137Z,14.27
2022-10-28T01:33:40.155Z,15.33
2022-10-28T01:36:15.613Z,10.43
2022-10-28T01:38:51.440Z,16.57
2022-10-28T01:41:26.803Z,43.53
2022-10-28T01:44:01.033Z,14.60
2022-10-28T01:46:37.753Z,12.70
2022-10-28T01:49:12.396Z,11.97
2022-10-28T01:51:44.651Z,13.77
2022-10-28T01:54:16.847Z,13.60
2022-10-28T01:56:46.428Z,14.33
2022-10-28T01:59:18.066Z,9.63
2022-10-28T02:01:49.462Z,21.80
2022-10-28T02:04:17.450Z,12.00
2022-10-28T02:06:47.997Z,11.73
2022-10-28T02:09:24.900Z,11.47
2022-10-28T02:12:15.665Z,14.20
2022-10-28T02:15:00.150Z,11.80
2022-10-28T02:17:39.371Z,15.63
2022-10-28T02:20:15.782Z,13.83
2022-10-28T02:22:50.665Z,15.63
2022-10-28T02:25:22.119Z,10.23
2022-10-28T02:27:59.902Z,12.73
2022-10-28T02:30:33.519Z,14.30
2022-10-28T02:33:07.537Z,13.90
2022-10-28T02:35:41.387Z,17.77
2022-10-28T02:38:12.555Z,11.17
2022-10-28T02:40:44.536Z,14.83
2022-10-28T02:43:15.637Z,14.40
2022-10-28T02:45:47.517Z,13.33
2022-10-28T02:48:21.100Z,18.87
2022-10-28T02:50:55.017Z,13.70
2022-10-28T02:53:29.942Z,16.10
2022-10-28T02:56:03.240Z,17.27
2022-10-28T02:58:39.202Z,15.30
2022-10-28T03:01:07.380Z,16.87
2022-10-28T03:03:36.747Z,18.97
2022-10-28T03:06:04.812Z,11.43
2022-10-28T03:08:32.720Z,16.33
2022-10-28T03:11:00.644Z,23.23
2022-10-28T03:13:28.573Z,19.27
2022-10-28T03:15:56.467Z,15.63
2022-10-28T03:18:24.369Z,18.43
2022-10-28T03:20:56.642Z,15.73
2022-10-28T03:23:26.799Z,17.00
2022-10-28T03:25:54.690Z,16.20
2022-10-28T03:28:22.685Z,15.13
2022-10-28T03:30:52.751Z,16.87
2022-10-28T03:33:20.581Z,16.03
2022-10-28T03:35:49.610Z,19.50
2022-10-28T03:38:18.869Z,15.30
2022-10-28T03:40:48.811Z,15.20
2022-10-28T03:43:16.781Z,20.13
2022-10-28T03:45:44.784Z,19.33
2022-10-28T03:48:12.789Z,15.83
2022-10-28T03:50:40.826Z,13.80
2022-10-28T03:53:08.756Z,19.20
2022-10-28T03:55:38.007Z,15.57
2022-10-28T03:58:05.976Z,19.23
2022-10-28T04:00:33.896Z,17.13
2022-10-28T04:03:01.898Z,18.50
2022-10-28T04:05:29.743Z,18.80
2022-10-28T04:07:57.672Z,12.23
2022-10-28T04:10:25.556Z,16.83
2022-10-28T04:12:54.948Z,15.17
2022-10-28T04:15:23.147Z,22.87
2022-10-28T04:17:50.981Z,18.43
2022-10-28T04:20:19.091Z,15.83
2022-10-28T04:22:46.994Z,20.93
2022-10-28T04:27:48.429Z,20.60
2022-10-28T04:30:18.022Z,14.40
2022-10-28T04:32:46.063Z,17.73
2022-10-28T04:35:15.604Z,15.70
2022-10-28T04:37:43.799Z,18.33
2022-10-28T04:40:12.514Z,19.03
2022-10-28T04:42:40.405Z,25.47
2022-10-28T04:45:09.646Z,17.63
2022-10-28T04:47:39.020Z,26.47
2022-10-28T04:50:07.787Z,14.00
2022-10-28T04:52:35.667Z,14.77
2022-10-28T04:55:03.518Z,16.10
2022-10-28T04:57:32.354Z,18.50
2022-10-28T05:00:00.226Z,20.67
2022-10-28T05:02:28.214Z,18.50
2022-10-28T05:05:00.245Z,14.87
2022-10-28T05:07:28.277Z,12.73
2022-10-28T05:09:56.172Z,15.70
2022-10-28T05:12:24.106Z,16.10
2022-10-28T05:14:53.201Z,15.63
2022-10-28T05:17:21.289Z,14.20
2022-10-28T05:19:49.205Z,15.70
2022-10-28T05:22:18.630Z,17.40
2022-10-28T05:24:46.674Z,15.33
2022-10-28T05:27:14.584Z,14.13
2022-10-28T05:29:42.440Z,16.17
2022-10-28T05:32:10.348Z,12.77
2022-10-28T05:34:38.244Z,14.73
2022-10-28T05:37:06.136Z,14.97
2022-10-28T05:39:37.409Z,19.03
2022-10-28T05:42:05.607Z,18.97
2022-10-28T05:44:33.528Z,25.97
2022-10-28T05:47:01.412Z,20.30
2022-10-28T05:49:29.287Z,16.63
2022-10-28T05:51:57.184Z,21.40
2022-10-28T05:54:25.108Z,24.40
2022-10-28T05:56:54.489Z,20.23
2022-10-28T05:59:22.420Z,17.33
2022-10-28T06:01:50.376Z,24.07
2022-10-28T06:04:18.493Z,15.40
2022-10-28T06:06:46.561Z,17.53
2022-10-28T06:09:14.475Z,25.93
2022-10-28T06:11:40.810Z,20.23
2022-10-28T06:14:10.079Z,31.30
2022-10-28T06:16:39.600Z,34.57
2022-10-28T06:19:07.587Z,23.17
2022-10-28T06:21:35.506Z,26.70
2022-10-28T06:24:03.650Z,20.70
2022-10-28T06:26:31.569Z,16.93
2022-10-28T06:29:01.383Z,17.73
2022-10-28T06:31:31.870Z,15.53
2022-10-28T06:33:59.971Z,13.03
2022-10-28T06:36:28.081Z,13.77
2022-10-28T06:38:56.026Z,20.20
2022-10-28T06:41:23.899Z,17.13
2022-10-28T06:43:51.862Z,18.90
2022-10-28T06:46:20.066Z,24.67
2022-10-28T06:48:50.887Z,26.87
2022-10-28T06:51:18.720Z,38.67
2022-10-28T06:53:51.921Z,24.57
2022-10-28T06:56:20.519Z,21.77
2022-10-28T06:58:51.848Z,24.83
2022-10-28T07:01:20.412Z,19.90
2022-10-28T07:03:50.196Z,15.10
2022-10-28T07:06:18.682Z,20.97
2022-10-28T07:08:46.637Z,16.97
2022-10-28T07:11:14.572Z,18.87
2022-10-28T07:13:44.313Z,19.03
2022-10-28T07:16:14.848Z,18.33
2022-10-28T07:18:42.690Z,15.97
2022-10-28T07:21:12.310Z,20.77
2022-10-28T07:23:40.162Z,18.80
2022-10-28T07:26:08.818Z,20.10
2022-10-28T07:28:36.689Z,16.40
2022-10-28T07:31:05.249Z,18.40
2022-10-28T07:33:33.255Z,16.70
2022-10-28T07:36:04.780Z,14.43
2022-10-28T07:38:35.007Z,14.57
2022-10-28T07:41:06.145Z,17.13
2022-10-28T07:43:36.905Z,15.10
2022-10-28T07:46:05.171Z,16.57
2022-10-28T07:48:36.066Z,18.70
2022-10-28T07:51:05.192Z,23.60
2022-10-28T07:53:35.317Z,18.90
2022-10-28T07:56:05.790Z,19.43
2022-10-28T07:58:33.753Z,16.97
2022-10-28T08:01:04.051Z,12.07
2022-10-28T08:03:38.606Z,16.07
2022-10-28T08:06:09.580Z,14.23
2022-10-28T08:08:39.762Z,15.43
2022-10-28T08:11:11.519Z,13.37
2022-10-28T08:13:40.394Z,17.60
2022-10-28T08:16:09.047Z,18.47
2022-10-28T08:18:46.522Z,16.90
2022-10-28T08:21:15.966Z,11.23
2022-10-28T08:23:46.881Z,15.40
2022-10-28T08:26:15.917Z,14.93
2022-10-28T08:28:44.495Z,14.07
2022-10-28T08:31:14.294Z,16.20
2022-10-28T08:33:44.477Z,11.43
2022-10-28T08:36:16.273Z,13.50
2022-10-28T08:38:46.193Z,13.57
2022-10-28T08:41:29.702Z,11.93
2022-10-28T08:44:21.795Z,14.03
2022-10-28T08:47:03.318Z,10.20
2022-10-28T08:49:34.429Z,17.50
2022-10-28T08:52:07.013Z,8.73
2022-10-28T08:54:42.594Z,14.50
2022-10-28T08:57:18.706Z,16.37
2022-10-28T08:59:47.828Z,10.87
2022-10-28T09:02:22.399Z,10.67
2022-10-28T09:04:56.570Z,8.33
2022-10-28T09:07:26.369Z,14.50
2022-10-28T09:09:56.909Z,18.17
2022-10-28T09:12:37.890Z,11.80
2022-10-28T09:15:19.740Z,13.00
2022-10-28T09:17:54.271Z,12.00
2022-10-28T09:20:32.825Z,13.00
2022-10-28T09:23:05.086Z,14.03
2022-10-28T09:25:43.840Z,17.07
2022-10-28T09:28:26.204Z,15.13
2022-10-28T09:31:04.689Z,12.17
2022-10-28T09:33:47.055Z,9.57
2022-10-28T09:36:20.908Z,11.07
2022-10-28T09:38:52.583Z,8.67
2022-10-28T09:41:25.467Z,8.33
2022-10-28T09:43:57.478Z,14.63
2022-10-28T09:46:33.218Z,8.97
2022-10-28T09:49:10.884Z,9.43
2022-10-28T09:51:47.267Z,9.90
2022-10-28T09:54:19.499Z,10.17
2022-10-28T09:56:48.824Z,12.53
2022-10-28T09:59:17.427Z,10.80
2022-10-28T10:01:47.651Z,12.20
2022-10-28T10:04:22.017Z,13.97
2022-10-28T10:06:53.849Z,10.60
2022-10-28T10:09:34.548Z,13.47
2022-10-28T10:12:23.414Z,13.30
2022-10-28T10:14:56.475Z,13.60
2022-10-28T10:17:28.736Z,13.73
2022-10-28T10:20:02.932Z,12.23
2022-10-28T10:22:32.906Z,10.93
2022-10-28T10:25:01.151Z,17.03
2022-10-28T10:27:32.368Z,12.13
2022-10-28T10:30:00.501Z,9.80
2022-10-28T10:32:31.146Z,12.50
2022-10-28T10:35:07.171Z,16.70
2022-10-28T10:37:36.890Z,10.00
2022-10-28T10:40:20.734Z,10.53
2022-10-28T10:43:13.072Z,15.37
2022-10-28T10:45:38.524Z,14.60
2022-10-28T10:48:14.499Z,13.03
2022-10-28T10:50:43.707Z,9.70
2022-10-28T10:53:26.664Z,14.47
2022-10-28T10:55:58.112Z,16.07
2022-10-28T10:58:30.764Z,10.37
2022-10-28T11:01:01.618Z,12.60
2022-10-28T11:03:33.030Z,11.30
2022-10-28T11:08:50.411Z,10.00
2022-10-28T11:11:22.270Z,11.27
2022-10-28T11:14:04.210Z,8.97
2022-10-28T11:16:32.367Z,12.83
2022-10-28T11:19:15.955Z,12.07
2022-10-28T11:21:57.429Z,10.67
2022-10-28T11:24:57.345Z,8.87
2022-10-28T11:27:35.693Z,14.77
2022-10-28T11:30:07.181Z,10.27
2022-10-28T11:33:01.928Z,11.67
2022-10-28T11:35:54.410Z,10.00
2022-10-28T11:38:45.574Z,12.30
2022-10-28T11:41:23.663Z,10.70
2022-10-28T11:43:56.832Z,8.57
2022-10-28T11:46:37.714Z,11.63
2022-10-28T11:49:42.195Z,11.23
2022-10-28T11:52:22.767Z,10.27
2022-10-28T11:55:04.404Z,12.33
2022-10-28T11:57:46.864Z,9.27
2022-10-28T12:00:28.661Z,13.17
2022-10-28T12:03:16.399Z,9.73
2022-10-28T12:05:48.403Z,10.70
2022-10-28T12:08:36.567Z,8.83
2022-10-28T12:11:16.148Z,10.77
2022-10-28T12:13:52.782Z,9.43
2022-10-28T12:16:28.873Z,12.47
2022-10-28T12:19:01.755Z,12.83
2022-10-28T12:24:06.775Z,10.77
2022-10-28T12:26:40.952Z,8.00
2022-10-28T12:29:18.259Z,12.27
2022-10-28T12:31:49.298Z,14.60
2022-10-28T12:34:24.760Z,9.83
2022-10-28T12:36:59.092Z,11.47
2022-10-28T12:39:32.536Z,10.33
2022-10-28T12:42:04.800Z,9.60
2022-10-28T12:44:35.092Z,15.43
2022-10-28T12:47:13.043Z,12.23
2022-10-28T12:49:52.107Z,9.00
2022-10-28T12:52:28.710Z,13.07
2022-10-28T12:55:02.692Z,10.77
2022-10-28T12:57:35.143Z,7.57
2022-10-28T13:00:08.631Z,6.87
2022-10-28T13:02:41.564Z,15.30
2022-10-28T13:05:20.344Z,7.80
2022-10-28T13:08:16.360Z,11.83
2022-10-28T13:10:48.758Z,12.73
2022-10-28T13:13:32.335Z,13.77
2022-10-28T13:16:30.469Z,9.87
2022-10-28T13:19:18.806Z,14.77
2022-10-28T13:22:03.500Z,7.90
2022-10-28T13:24:41.049Z,10.27
2022-10-28T13:27:13.955Z,10.33
2022-10-28T13:29:44.491Z,14.03
2022-10-28T13:32:38.369Z,11.80
2022-10-28T13:35:16.195Z,8.60
2022-10-28T13:37:48.564Z,10.63
2022-10-28T13:40:26.997Z,11.23
2022-10-28T13:42:55.140Z,11.20
2022-10-28T13:45:48.140Z,7.60
2022-10-28T13:48:54.424Z,10.97
2022-10-28T13:51:33.404Z,13.83
2022-10-28T13:54:02.755Z,11.60
2022-10-28T13:56:48.183Z,10.97
2022-10-28T13:59:27.918Z,6.77
2022-10-28T14:02:33.918Z,9.60
2022-10-28T14:05:01.483Z,9.23
2022-10-28T14:07:34.994Z,10.40
2022-10-28T14:10:25.366Z,14.87
2022-10-28T14:12:57.096Z,11.37
2022-10-28T14:15:27.937Z,13.07
2022-10-28T14:18:16.034Z,10.67
2022-10-28T14:20:59.079Z,8.83
2022-10-28T14:24:16.070Z,11.30
2022-10-28T14:27:27.203Z,12.93
2022-10-28T14:30:23.491Z,8.93
2022-10-28T14:33:19.966Z,8.67
2022-10-28T14:35:52.157Z,8.20
2022-10-28T14:38:45.947Z,11.70
2022-10-28T14:41:32.966Z,12.73
2022-10-28T14:44:16.834Z,10.10
2022-10-28T14:47:06.318Z,9.50
2022-10-28T14:49:37.278Z,7.87
2022-10-28T14:52:09.161Z,10.57
2022-10-28T14:54:44.602Z,14.57
2022-10-28T14:57:12.560Z,7.23
2022-10-28T14:59:46.037Z,10.87
2022-10-28T15:02:18.184Z,10.40
2022-10-28T15:04:48.222Z,11.47
2022-10-28T15:07:17.857Z,6.90
2022-10-28T15:09:48.772Z,10.63
2022-10-28T15:12:18.976Z,7.67
2022-10-28T15:14:49.112Z,10.27
2022-10-28T15:17:20.644Z,13.30
2022-10-28T15:19:51.722Z,12.70
2022-10-28T15:22:22.307Z,9.17
2022-10-28T15:24:58.459Z,16.77
2022-10-28T15:27:30.044Z,11.30
2022-10-28T15:29:58.121Z,8.80
2022-10-28T15:32:33.382Z,8.13
2022-10-28T15:35:23.899Z,8.80
2022-10-28T15:37:52.014Z,10.93
2022-10-28T15:40:27.760Z,9.53
2022-10-28T15:43:00.688Z,13.37
2022-10-28T15:45:31.131Z,10.97
2022-10-28T15:48:01.838Z,12.00
2022-10-28T15:50:32.629Z,10.23
2022-10-28T15:53:24.117Z,6.67
2022-10-28T15:56:10.504Z,11.23
2022-10-28T15:58:40.409Z,13.07
2022-10-28T16:01:27.380Z,10.07
2022-10-28T16:03:56.950Z,12.33
2022-10-28T16:06:30.752Z,11.60
2022-10-28T16:09:05.378Z,14.93
2022-10-28T16:11:36.364Z,7.90
2022-10-28T16:14:18.883Z,11.20
2022-10-28T16:16:46.933Z,23.30
2022-10-28T16:19:26.896Z,11.90
2022-10-28T16:21:54.745Z,20.13
2022-10-28T16:24:22.699Z,16.43
2022-10-28T16:26:50.567Z,15.47
2022-10-28T16:29:20.393Z,19.97
2022-10-28T16:31:51.503Z,13.13
2022-10-28T16:34:20.841Z,12.20
2022-10-28T16:36:50.484Z,9.67
2022-10-28T16:39:18.346Z,13.17
2022-10-28T16:41:46.216Z,14.47
2022-10-28T16:44:18.568Z,13.23
2022-10-28T16:46:46.560Z,13.20
2022-10-28T16:49:16.536Z,12.27
2022-10-28T16:51:46.682Z,16.20
2022-10-28T16:54:16.718Z,21.67
2022-10-28T16:56:59.986Z,14.67
2022-10-28T16:59:38.369Z,11.47
2022-10-28T17:02:25.688Z,20.50
2022-10-28T17:04:53.681Z,16.43
2022-10-28T17:07:22.905Z,15.50
2022-10-28T17:09:51.927Z,8.30
2022-10-28T17:12:21.534Z,11.43
2022-10-28T17:14:49.691Z,22.57
2022-10-28T17:17:18.290Z,17.83
2022-10-28T17:19:46.733Z,16.17
2022-10-28T17:22:15.113Z,10.83
2022-10-28T17:24:47.554Z,12.90
2022-10-28T17:27:15.569Z,10.23
2022-10-28T17:29:43.551Z,11.23
2022-10-28T17:32:11.519Z,8.00
2022-10-28T17:34:39.462Z,14.17
2022-10-28T17:37:07.914Z,12.10
2022-10-28T17:39:35.919Z,14.50
2022-10-28T17:42:05.431Z,19.33
2022-10-28T17:44:33.345Z,15.10
2022-10-28T17:47:01.247Z,14.47
2022-10-28T17:49:29.889Z,12.93
2022-10-28T17:51:57.871Z,14.77
2022-10-28T17:54:25.874Z,13.60
2022-10-28T17:56:53.925Z,12.47
2022-10-28T17:59:23.249Z,19.20
2022-10-28T18:01:51.269Z,14.50
2022-10-28T18:04:20.106Z,15.13
2022-10-28T18:06:48.043Z,21.03
2022-10-28T18:09:15.949Z,14.50
2022-10-28T18:11:43.839Z,20.27
2022-10-28T18:14:11.772Z,17.57
2022-10-28T18:16:41.025Z,15.77
2022-10-28T18:19:09.178Z,14.73
2022-10-28T18:21:37.152Z,23.67
2022-10-28T18:24:05.610Z,25.07
2022-10-28T18:26:34.794Z,20.90
2022-10-28T18:29:04.083Z,21.07
2022-10-28T18:31:33.335Z,15.37
2022-10-28T18:34:03.264Z,17.77
2022-10-28T18:36:34.522Z,14.53
2022-10-28T18:39:03.082Z,12.93
2022-10-28T18:41:31.894Z,15.47
2022-10-28T18:44:00.985Z,21.97
2022-10-28T18:46:30.794Z,14.87
2022-10-28T18:51:28.051Z,16.43
2022-10-28T18:53:56.740Z,16.27
2022-10-28T18:56:29.029Z,13.57
2022-10-28T18:58:59.655Z,13.47
2022-10-28T19:01:31.556Z,14.03
2022-10-28T19:04:00.699Z,13.70
2022-10-28T19:06:32.538Z,14.33
2022-10-28T19:09:02.574Z,12.63
2022-10-28T19:11:32.281Z,12.30
2022-10-28T19:14:05.739Z,14.43
2022-10-28T19:16:34.707Z,17.47
2022-10-28T19:19:07.040Z,15.40
2022-10-28T19:21:40.129Z,11.70
2022-10-28T19:24:08.710Z,13.00
2022-10-28T19:26:36.731Z,12.47
2022-10-28T19:29:05.869Z,19.67
2022-10-28T19:31:38.677Z,27.33
2022-10-28T19:34:06.742Z,19.97
2022-10-28T19:36:36.406Z,40.37
2022-10-28T19:39:04.729Z,30.60
2022-10-28T19:41:32.918Z,19.17
2022-10-28T19:44:02.604Z,16.60
2022-10-28T19:46:32.305Z,12.90
2022-10-28T19:49:01.829Z,17.23
2022-10-28T19:51:31.793Z,16.87
2022-10-28T19:54:03.118Z,20.53
2022-10-28T19:56:33.129Z,27.37
2022-10-28T19:59:02.847Z,33.83
2022-10-28T20:01:34.427Z,27.50
2022-10-28T20:04:02.961Z,25.87
2022-10-28T20:06:33.249Z,26.17
2022-10-28T20:09:03.155Z,23.57
2022-10-28T20:11:34.003Z,29.70
2022-10-28T20:14:05.870Z,31.67
2022-10-28T20:16:34.975Z,28.73
2022-10-28T20:19:03.047Z,33.90
2022-10-28T20:21:33.181Z,26.20
2022-10-28T20:24:05.271Z,27.13
2022-10-28T20:26:35.914Z,21.80
2022-10-28T20:29:03.894Z,15.37
2022-10-28T20:31:33.320Z,16.87
2022-10-28T20:34:03.653Z,15.67
2022-10-28T20:36:33.725Z,20.37
2022-10-28T20:39:05.018Z,15.30
2022-10-28T20:41:34.809Z,45.60
2022-10-28T20:44:03.662Z,24.30
2022-10-28T20:46:32.101Z,25.73
2022-10-28T20:49:00.848Z,35.37
2022-10-28T20:51:31.253Z,31.60
2022-10-28T20:53:59.333Z,33.37
2022-10-28T20:56:31.832Z,31.33
2022-10-28T20:59:00.285Z,40.60
2022-10-28T21:01:30.181Z,50.17
2022-10-28T21:04:00.553Z,20.57
2022-10-28T21:06:29.631Z,16.77
2022-10-28T21:08:57.935Z,18.57
2022-10-28T21:11:31.314Z,18.20
2022-10-28T21:14:00.905Z,15.73
2022-10-28T21:16:30.199Z,16.13
2022-10-28T21:18:59.065Z,13.87
2022-10-28T21:21:30.611Z,17.57
2022-10-28T21:23:58.832Z,16.80
2022-10-28T21:26:28.238Z,17.37
2022-10-28T21:28:56.330Z,13.50
2022-10-28T21:31:24.784Z,13.40
2022-10-28T21:33:54.976Z,15.57
2022-10-28T21:36:23.418Z,17.80
2022-10-28T21:38:56.683Z,23.80
2022-10-28T21:41:25.976Z,19.50
2022-10-28T21:43:55.391Z,14.33
2022-10-28T21:46:24.675Z,11.43
2022-10-28T21:48:54.650Z,12.60
2022-10-28T21:51:22.533Z,15.63
2022-10-28T21:53:50.406Z,18.00
2022-10-28T21:56:20.602Z,20.63
2022-10-28T21:58:50.049Z,19.17
2022-10-28T22:01:21.191Z,21.27
2022-10-28T22:03:49.559Z,19.80
2022-10-28T22:06:17.694Z,20.10
2022-10-28T22:08:46.743Z,17.23
2022-10-28T22:11:16.950Z,19.53
2022-10-28T22:13:45.839Z,24.73
2022-10-28T22:16:16.564Z,22.60
2022-10-28T22:18:46.467Z,19.60
2022-10-28T22:21:16.920Z,15.07
2022-10-28T22:23:47.467Z,21.83
2022-10-28T22:26:19.431Z,13.93
2022-10-28T22:28:48.167Z,20.03
2022-10-28T22:31:17.701Z,19.47
2022-10-28T22:33:50.012Z,16.60
2022-10-28T22:36:24.072Z,22.53
2022-10-28T22:38:52.767Z,13.83
2022-10-28T22:41:24.123Z,17.30
2022-10-28T22:43:53.557Z,14.80
2022-10-28T22:46:22.412Z,15.40
2022-10-28T22:48:51.688Z,16.93
2022-10-28T22:51:19.983Z,16.90
2022-10-28T22:53:48.077Z,15.80
2022-10-28T22:56:17.802Z,14.17
2022-10-28T22:58:45.815Z,18.60
2022-10-28T23:01:15.618Z,18.17
2022-10-28T23:03:45.417Z,11.97
2022-10-28T23:06:17.622Z,17.00
2022-10-28T23:08:48.722Z,14.80
2022-10-28T23:11:18.398Z,12.80
2022-10-28T23:13:46.438Z,15.83
2022-10-28T23:16:16.604Z,15.27
2022-10-28T23:18:44.917Z,23.17
2022-10-28T23:21:16.475Z,22.17
2022-10-28T23:23:49.728Z,17.17
2022-10-28T23:26:21.005Z,15.87
2022-10-28T23:28:52.382Z,16.67
2022-10-28T23:31:20.480Z,13.13
2022-10-28T23:33:48.756Z,15.70
2022-10-28T23:36:18.178Z,15.90
2022-10-28T23:38:46.230Z,13.17
2022-10-28T23:41:18.520Z,14.07
2022-10-28T23:43:47.380Z,13.77
2022-10-28T23:46:15.418Z,14.43
2022-10-28T23:48:43.471Z,18.50
2022-10-28T23:51:11.524Z,12.43
2022-10-28T23:53:40.907Z,12.10
2022-10-28T23:56:08.977Z,11.43
2022-10-28T23:58:36.908Z,19.13
